Flight Track Log - Related Links

Times and Time Zones

All times are in EDT time to prevent confusion due to time zone crossing. See the DAL130 flight status page for this flight to view local times or setup timezone preferences in your user account.

Time Position Orientation Groundspeed Altitude Reporting Facility
EDT Latitude Longitude Course Direction KTS MPH feet Rate Location/Type
Thu 10:26:32 AM 36.0747 -115.1758 267° West 181 208 3,200  Level Los Angeles Center
Thu 10:27:02 AM 36.0731 -115.2144 246° West 206 237 3,900 1,417 Climbing Los Angeles Center
Thu 10:27:44 AM 36.0547 -115.2658 198° South 289 333 4,900 1,824 Climbing Los Angeles Center
Thu 10:28:44 AM 35.9900 -115.2922 168° South 283 326 7,000 1,650 Climbing Los Angeles Center
Thu 10:29:44 AM 35.9150 -115.2725 99° East 326 375 8,200 1,900 Climbing Los Angeles Center
Thu 10:30:44 AM 35.9017 -115.1725 88° East 310 357 10,800 2,000 Climbing Los Angeles Center
Thu 10:31:44 AM 35.9047 -115.0547 88° East 336 387 12,200 1,900 Climbing Los Angeles Center
Thu 10:32:44 AM 35.9078 -114.9239 88° East 364 419 14,600 2,350 Climbing Los Angeles Center
Thu 10:33:44 AM 35.9106 -114.7906 89° East 374 430 16,900 2,100 Climbing Los Angeles Center
Thu 10:34:44 AM 35.9131 -114.6494 88° East 388 447 18,800 1,900 Climbing Los Angeles Center
Thu 10:35:44 AM 35.9175 -114.5031 89° East 410 472 20,700 1,850 Climbing Los Angeles Center
Thu 10:36:44 AM 35.9197 -114.3517 90° East 426 490 22,500 1,750 Climbing Los Angeles Center
Thu 10:37:44 AM 35.9194 -114.2006 88° East 431 496 24,200 1,550 Climbing Los Angeles Center
Thu 10:38:44 AM 35.9231 -114.0439 89° East 443 510 25,600 1,500 Climbing Los Angeles Center
Thu 10:39:44 AM 35.9244 -113.8875 90° East 454 522 27,200 1,400 Climbing Los Angeles Center
Thu 10:40:44 AM 35.9236 -113.7233 91° East 464 534 28,400 1,400 Climbing Los Angeles Center
Thu 10:41:44 AM 35.9222 -113.5644 90° East 464 534 30,000 1,500 Climbing Los Angeles Center
Thu 10:42:44 AM 35.9231 -113.4028 89° East 464 534 31,400 1,350 Climbing Los Angeles Center
Thu 10:43:44 AM 35.9256 -113.2436 91° East 464 534 32,700 1,250 Climbing Los Angeles Center
Thu 10:44:44 AM 35.9239 -113.0822 90° East 464 534 33,900 1,200 Climbing Los Angeles Center
Thu 10:45:44 AM 35.9239 -112.9231 90° East 459 528 35,100 1,100 Climbing Los Angeles Center
Thu 10:46:44 AM 35.9239 -112.7667 90° East 459 528 36,100 950 Climbing Los Angeles Center
Thu 10:47:44 AM 35.9236 -112.6103 91° East 459 528 37,000 450 Climbing Los Angeles Center
Thu 10:48:44 AM 35.9217 -112.4719 90° East 459 528 37,000  Level Los Angeles Center
Thu 10:49:44 AM 35.9211 -112.3156 91° East 459 528 37,000  Level Los Angeles Center
Thu 10:51:37 AM 35.9183 -112.0186 90° East 459 528 37,000  Level Denver Center
Thu 10:52:37 AM 35.9175 -111.8625 90° East 464 534 37,000  Level Denver Center
Thu 10:53:37 AM 35.9167 -111.7061 91° East 459 528 37,000  Level Denver Center
Thu 10:54:37 AM 35.9133 -111.5497 89° East 459 528 37,000  Level Denver Center
Thu 10:55:37 AM 35.9144 -111.3833 86° East 453 521 37,000  Level Denver Center
Thu 10:56:37 AM 35.9231 -111.2303 87° East 447 514 37,000  Level Denver Center
Thu 10:57:37 AM 35.9294 -111.0769 86° East 447 514 37,000  Level Denver Center
Thu 10:58:37 AM 35.9378 -110.9211 87° East 447 514 37,000  Level Denver Center
Thu 10:59:37 AM 35.9436 -110.7653 86° East 447 514 37,000  Level Denver Center
Thu 11:00:37 AM 35.9514 -110.6147 88° East 445 512 37,000  Level Denver Center
Thu 11:01:37 AM 35.9544 -110.4764 87° East 445 512 37,000  Level Denver Center
Thu 11:02:37 AM 35.9617 -110.3231 89° East 440 506 37,000  Level Denver Center
Thu 11:03:37 AM 35.9647 -110.1722 86° East 440 506 37,000  Level Denver Center
Thu 11:04:37 AM 35.9736 -110.0239 87° East 440 506 37,000  Level Denver Center
Thu 11:05:37 AM 35.9803 -109.8731 88° East 440 506 37,000  Level Denver Center
Thu 11:06:37 AM 35.9853 -109.7017 88° East 440 506 37,000  Level Denver Center
Thu 11:08:55 AM 35.9956 -109.3508 88° East 457 526 37,000  Level Albuquerque Center
Thu 11:09:55 AM 36.0003 -109.1969 88° East 451 519 37,000  Level Albuquerque Center
Thu 11:10:55 AM 36.0047 -109.0275 88° East 451 519 37,000  Level Albuquerque Center
Thu 11:11:55 AM 36.0086 -108.8889 88° East 444 511 37,000  Level Albuquerque Center
Thu 11:12:55 AM 36.0128 -108.7169 88° East 449 517 37,000  Level Albuquerque Center
Thu 11:13:55 AM 36.0167 -108.5656 88° East 449 517 37,000  Level Albuquerque Center
Thu 11:14:55 AM 36.0200 -108.4269 88° East 444 511 37,000  Level Albuquerque Center
Thu 11:15:55 AM 36.0233 -108.2756 89° East 439 505 37,000  Level Albuquerque Center
Thu 11:16:55 AM 36.0267 -108.1033 89° East 445 512 37,000  Level Albuquerque Center
Thu 11:17:55 AM 36.0294 -107.9519 89° East 440 506 37,000  Level Albuquerque Center
Thu 11:18:55 AM 36.0322 -107.8158 90° East 440 506 37,000  Level Albuquerque Center
Thu 11:19:55 AM 36.0328 -107.6464 88° East 440 506 37,000  Level Albuquerque Center
Thu 11:20:55 AM 36.0372 -107.4947 89° East 448 516 37,000  Level Albuquerque Center
Thu 11:21:55 AM 36.0394 -107.3356 89° East 448 516 37,000  Level Albuquerque Center
Thu 11:22:55 AM 36.0414 -107.2019 89° East 442 509 37,000 300 Level Albuquerque Center
Thu 11:23:55 AM 36.0431 -107.0375 89° East 437 503 37,600 550 Climbing Albuquerque Center
Thu 11:24:55 AM 36.0447 -106.8858 89° East 437 503 38,100 500 Climbing Albuquerque Center
Thu 11:25:55 AM 36.0461 -106.7344 90° East 437 503 38,600 450 Climbing Albuquerque Center
Thu 11:26:55 AM 36.0453 -106.5983 87° East 437 503 39,000 200 Climbing Albuquerque Center
Thu 11:27:55 AM 36.0525 -106.4492 90° East 437 503 39,000  Level Albuquerque Center
Thu 11:28:55 AM 36.0514 -106.2975 90° East 437 503 39,000  Level Albuquerque Center
Thu 11:29:55 AM 36.0519 -106.1461 89° East 442 509 39,000  Level Albuquerque Center
Thu 11:30:55 AM 36.0544 -105.9969 90° East 436 502 39,000  Level Albuquerque Center
Thu 11:31:55 AM 36.0547 -105.8453 90° East 436 502 39,000  Level Albuquerque Center
Thu 11:32:55 AM 36.0550 -105.6911 91° East 436 502 39,000  Level Albuquerque Center
Thu 11:33:55 AM 36.0525 -105.5344 90° East 442 509 39,000  Level Albuquerque Center
Thu 11:34:55 AM 36.0522 -105.3831 90° East 442 509 39,000  Level Albuquerque Center
Thu 11:35:55 AM 36.0517 -105.2289 91° East 442 509 39,000  Level Albuquerque Center
Thu 11:36:55 AM 36.0489 -105.0772 89° East 442 509 39,000  Level Albuquerque Center
Thu 11:37:55 AM 36.0500 -104.9206 91° East 442 509 39,000  Level Albuquerque Center
Thu 11:38:55 AM 36.0469 -104.7717 90° East 437 503 39,000  Level Albuquerque Center
Thu 11:39:55 AM 36.0472 -104.6047 91° East 437 503 39,000  Level Albuquerque Center
Thu 11:40:55 AM 36.0456 -104.4456 91° East 437 503 39,000  Level Albuquerque Center
Thu 11:41:55 AM 36.0439 -104.2939 91° East 443 510 39,000  Level Albuquerque Center
Thu 11:42:55 AM 36.0422 -104.1425 91° East 438 504 39,000  Level Albuquerque Center
Thu 11:43:55 AM 36.0400 -103.9858 90° East 443 510 39,000  Level Albuquerque Center
Thu 11:44:55 AM 36.0397 -103.8317 92° East 443 510 39,000  Level Albuquerque Center
Thu 11:45:55 AM 36.0350 -103.6753 91° East 453 521 39,000  Level Albuquerque Center
Thu 11:46:55 AM 36.0325 -103.5314 90° East 459 528 39,000  Level Albuquerque Center
Thu 11:47:55 AM 36.0317 -103.3750 92° East 459 528 39,000  Level Albuquerque Center
Thu 11:48:55 AM 36.0264 -103.2186 91° East 459 528 39,000  Level Albuquerque Center
Thu 11:49:55 AM 36.0250 -103.0644 93° East 452 520 39,000  Level Albuquerque Center
Thu 11:50:55 AM 36.0186 -102.8903 92° East 452 520 39,000  Level Albuquerque Center
Thu 11:51:55 AM 36.0147 -102.7339 92° East 457 526 39,000  Level Albuquerque Center
Thu 11:52:55 AM 36.0106 -102.5747 91° East 457 526 39,000  Level Albuquerque Center
Thu 11:53:55 AM 36.0083 -102.4156 92° East 457 526 39,000  Level Albuquerque Center
Thu 11:54:55 AM 36.0039 -102.2567 92° East 457 526 39,000  Level Albuquerque Center
Thu 11:55:55 AM 35.9992 -102.1006 92° East 457 526 39,000  Level Albuquerque Center
Thu 11:56:55 AM 35.9942 -101.9417 92° East 457 526 39,000  Level Albuquerque Center
Thu 11:57:55 AM 35.9892 -101.7878 92° East 457 526 39,000 -200 Level Albuquerque Center
Thu 11:58:55 AM 35.9833 -101.6242 92° East 457 526 38,600 -1,500 Descending Albuquerque Center
Thu 12:00:07 PM 35.9781 -101.4678 92° East 457 526 35,700 -3,636 Descending Albuquerque Center
Thu 12:01:07 PM 35.9725 -101.2731 93° East 457 526 30,600 -3,300 Descending Albuquerque Center
Thu 12:02:07 PM 35.9658 -101.1042 93° East 470 541 29,100 -900 Descending Albuquerque Center
Thu 12:03:07 PM 35.9589 -100.9356 94° East 475 547 28,800 -800 Descending Albuquerque Center
Thu 12:04:07 PM 35.9508 -100.7847 93° East 488 562 27,500 -1,550 Descending Albuquerque Center
Thu 12:05:07 PM 35.9447 -100.6389 93° East 454 522 25,700 -586 Descending Albuquerque Center
Thu 12:08:23 PM 35.9236 -100.1311 93° East 452 520 25,000 -164 Descending Kansas City Center
Thu 12:09:23 PM 35.9164 -99.9742 94° East 458 527 25,000  Level Kansas City Center
Thu 12:10:23 PM 35.9069 -99.8144 93° East 463 533 25,000  Level Kansas City Center
Thu 12:12:21 PM 35.8911 -99.5014 93° East 460 529 25,000  Level Fort Worth Center
Thu 12:13:21 PM 35.8833 -99.3450 93° East 460 529 25,000  Level Fort Worth Center
Thu 12:14:21 PM 35.8753 -99.1808 95° East 460 529 25,000  Level Fort Worth Center
Thu 12:15:21 PM 35.8650 -99.0219 94° East 460 529 25,000  Level Fort Worth Center
Thu 12:16:21 PM 35.8564 -98.8656 94° East 460 529 25,000  Level Fort Worth Center
Thu 12:17:21 PM 35.8478 -98.7067 94° East 460 529 25,000  Level Fort Worth Center
Thu 12:18:21 PM 35.8389 -98.5453 95° East 465 535 25,000  Level Fort Worth Center
Thu 12:19:21 PM 35.8278 -98.3836 94° East 465 535 25,000  Level Fort Worth Center
Thu 12:21:11 PM 35.8122 -98.1072 95° East 478 550 25,000  Level Kansas City Center
Thu 12:22:11 PM 35.8006 -97.9350 94° East 473 544 25,000  Level Kansas City Center
Thu 12:23:11 PM 35.7906 -97.7758 95° East 468 539 25,000  Level Kansas City Center
Thu 12:24:11 PM 35.7800 -97.6167 94° East 462 532 25,000  Level Kansas City Center
Thu 12:25:11 PM 35.7717 -97.4553 97° East 462 532 25,000  Level Kansas City Center
Thu 12:26:11 PM 35.7583 -97.3139 94° East 462 532 25,000  Level Kansas City Center
Thu 12:27:11 PM 35.7497 -97.1497 96° East 462 532 25,000  Level Kansas City Center
Thu 12:28:21 PM 35.7350 -96.9661 96° East 485 558 25,000  Level Fort Worth Center
Thu 12:29:21 PM 35.7194 -96.7872 95° East 479 551 25,000 750 Level Fort Worth Center
Thu 12:30:21 PM 35.7083 -96.6289 96° East 474 545 26,500 1,650 Climbing Fort Worth Center
Thu 12:31:21 PM 35.6947 -96.4681 96° East 474 545 28,300 1,900 Climbing Fort Worth Center
Thu 12:32:21 PM 35.6808 -96.3047 96° East 479 551 30,300 1,750 Climbing Fort Worth Center
Thu 12:33:21 PM 35.6667 -96.1439 95° East 479 551 31,800 449 Climbing Fort Worth Center
Thu 12:36:08 PM 35.6347 -95.7186 95° East 465 535 32,000 53 Climbing Memphis Center
Thu 12:37:08 PM 35.6225 -95.5594 97° East 465 535 32,000  Level Memphis Center
Thu 12:38:08 PM 35.6064 -95.3975 96° East 465 535 32,000  Level Memphis Center
Thu 12:39:08 PM 35.5919 -95.2383 96° East 465 535 32,000  Level Memphis Center
Thu 12:40:08 PM 35.5792 -95.0794 97° East 465 535 32,000 400 Level Memphis Center
Thu 12:41:08 PM 35.5622 -94.9175 96° East 471 542 32,800 1,250 Climbing Memphis Center
Thu 12:42:08 PM 35.5492 -94.7586 96° East 471 542 34,500 1,800 Climbing Memphis Center
Thu 12:43:08 PM 35.5358 -94.6050 97° East 466 536 36,400 1,250 Climbing Memphis Center
Thu 12:44:08 PM 35.5200 -94.4536 95° East 456 525 37,000 300 Climbing Memphis Center
Thu 12:45:08 PM 35.5067 -94.2822 97° East 456 525 37,000  Level Memphis Center
Thu 12:46:08 PM 35.4906 -94.1283 96° East 456 525 37,000  Level Memphis Center
Thu 12:47:08 PM 35.4764 -93.9747 97° East 456 525 37,000  Level Memphis Center
Thu 12:48:08 PM 35.4619 -93.8211 97° East 451 519 37,000  Level Memphis Center
Thu 12:49:08 PM 35.4475 -93.6703 98° East 446 513 37,000  Level Memphis Center
Thu 12:50:08 PM 35.4306 -93.5167 97° East 446 513 37,000  Level Memphis Center
Thu 12:51:08 PM 35.4189 -93.3964 97° East 446 513 37,000  Level Memphis Center
Thu 12:52:08 PM 35.4019 -93.2356 97° East 441 507 37,000  Level Memphis Center
Thu 12:53:08 PM 35.3867 -93.0822 96° East 446 513 37,000  Level Memphis Center
Thu 12:54:08 PM 35.3731 -92.9339 99° East 446 513 37,000  Level Memphis Center
Thu 12:55:08 PM 35.3511 -92.7728 98° East 451 519 37,000  Level Memphis Center
Thu 12:56:08 PM 35.3333 -92.6197 97° East 457 526 37,000  Level Memphis Center
Thu 12:57:08 PM 35.3172 -92.4642 98° East 457 526 37,000  Level Memphis Center
Thu 12:58:08 PM 35.2989 -92.3008 98° East 452 520 37,000  Level Memphis Center
Thu 12:59:08 PM 35.2803 -92.1453 98° East 447 514 37,000  Level Memphis Center
Thu 01:00:08 PM 35.2636 -91.9922 99° East 452 520 37,000  Level Memphis Center
Thu 01:01:08 PM 35.2447 -91.8394 98° East 452 520 37,000  Level Memphis Center
Thu 01:02:08 PM 35.2278 -91.6839 99° East 452 520 37,000  Level Memphis Center
Thu 01:03:08 PM 35.2083 -91.5311 99° East 452 520 37,000  Level Memphis Center
Thu 01:04:08 PM 35.1889 -91.3733 99° East 457 526 37,000  Level Memphis Center
Thu 01:05:08 PM 35.1692 -91.2181 96° East 462 532 37,000  Level Memphis Center
Thu 01:06:08 PM 35.1556 -91.0631 99° East 462 532 37,000  Level Memphis Center
Thu 01:07:08 PM 35.1356 -90.9006 100° East 468 539 37,000  Level Memphis Center
Thu 01:08:08 PM 35.1131 -90.7403 99° East 468 539 37,000  Level Memphis Center
Thu 01:09:08 PM 35.0947 -90.5956 99° East 474 545 37,000  Level Memphis Center
Thu 01:10:08 PM 35.0742 -90.4331 98° East 479 551 37,000  Level Memphis Center
Thu 01:11:08 PM 35.0553 -90.2758 99° East 479 551 37,000  Level Memphis Center
Thu 01:12:08 PM 35.0342 -90.1136 98° East 484 557 37,000  Level Memphis Center
Thu 01:13:08 PM 35.0150 -89.9539 98° East 478 550 37,000  Level Memphis Center
Thu 01:14:08 PM 34.9933 -89.7767 101° East 478 550 37,000  Level Memphis Center
Thu 01:15:08 PM 34.9653 -89.6069 102° East 492 566 37,000  Level Memphis Center
Thu 01:16:08 PM 34.9372 -89.4478 101° East 482 555 37,000  Level Memphis Center
Thu 01:17:08 PM 34.9131 -89.2908 101° East 477 549 37,000  Level Memphis Center
Thu 01:18:08 PM 34.8908 -89.1469 101° East 477 549 37,000  Level Memphis Center
Thu 01:19:08 PM 34.8661 -88.9853 101° East 488 562 37,000  Level Memphis Center
Thu 01:20:08 PM 34.8414 -88.8236 100° East 482 555 37,000  Level Memphis Center
Thu 01:21:08 PM 34.8183 -88.6597 102° East 487 560 37,000  Level Memphis Center
Thu 01:22:08 PM 34.7911 -88.5008 101° East 487 560 37,000  Level Memphis Center
Thu 01:23:08 PM 34.7633 -88.3297 101° East 474 545 37,000 -100 Level Memphis Center
Thu 01:24:08 PM 34.7375 -88.1661 101° East 474 545 36,800 -600 Descending Memphis Center
Thu 01:25:08 PM 34.7117 -88.0000 101° East 505 581 35,800 -1,050 Descending Memphis Center
Thu 01:26:08 PM 34.6853 -87.8367 101° East 489 563 34,700 -1,100 Descending Memphis Center
Thu 01:27:08 PM 34.6592 -87.6758 103° East 484 557 33,600 -850 Descending Memphis Center
Thu 01:28:08 PM 34.6283 -87.5100 102° East 501 577 33,000 -218 Descending Memphis Center
Thu 01:29:53 PM 34.5778 -87.2125 103° East 526 605 33,000  Level Atlanta Center
Thu 01:30:53 PM 34.5464 -87.0475 105° East 516 594 33,000  Level Atlanta Center
Thu 01:31:53 PM 34.5086 -86.8772 104° East 511 588 33,000  Level Atlanta Center
Thu 01:32:53 PM 34.4767 -86.7275 105° East 511 588 33,000  Level Atlanta Center
Thu 01:33:53 PM 34.4383 -86.5600 105° East 511 588 33,000  Level Atlanta Center
Thu 01:34:53 PM 34.4019 -86.3928 105° East 511 588 33,000  Level Atlanta Center
Thu 01:35:53 PM 34.3656 -86.2256 105° East 511 588 33,000 -400 Level Atlanta Center
Thu 01:36:53 PM 34.3286 -86.0561 105° East 517 595 32,200 -2,250 Descending Atlanta Center
Thu 01:37:53 PM 34.2897 -85.8867 106° East 512 589 28,500 -3,150 Descending Atlanta Center
Thu 01:38:53 PM 34.2503 -85.7250 105° East 504 580 25,900 -2,650 Descending Atlanta Center
Thu 01:39:53 PM 34.2147 -85.5661 106° East 493 567 23,200 -2,650 Descending Atlanta Center
Thu 01:40:53 PM 34.1789 -85.4122 106° East 485 558 20,600 -2,700 Descending Atlanta Center
Thu 01:41:53 PM 34.1450 -85.2686 106° East 458 527 17,800 -2,450 Descending Atlanta Center
Thu 01:42:53 PM 34.1131 -85.1303 112° Southeast 435 501 15,700 -1,900 Descending Atlanta Center
Thu 01:43:53 PM 34.0722 -85.0067 132° Southeast 409 471 14,000 -1,450 Descending Atlanta Center
Thu 01:44:53 PM 33.9936 -84.9006 133° Southeast 387 445 12,800 -1,000 Descending Atlanta Center
Thu 01:45:53 PM 33.9192 -84.8047 135° Southeast 387 445 12,000 -850 Descending Atlanta Center
Thu 01:46:53 PM 33.8447 -84.7142 133° Southeast 382 440 11,100 -500 Descending Atlanta Center
Thu 01:47:53 PM 33.7783 -84.6286 129° Southeast 369 425 11,000 -50 Descending Atlanta Center
Thu 01:48:53 PM 33.7286 -84.5558 90° East 316 364 11,000 -350 Level Atlanta Center
Thu 01:49:53 PM 33.7289 -84.4733 90° East 261 300 10,300 -1,250 Descending Atlanta Center
Thu 01:50:53 PM 33.7292 -84.3761 87° East 261 300 8,500 -1,669 Descending Atlanta Center
Thu 01:52:06 PM 33.7333 -84.2667 90° East 251 289 6,600 -1,263 Descending Atlanta TRACON
Thu 01:53:06 PM 33.7333 -84.2000 168° South 233 268 5,700 -800 Descending Atlanta TRACON
Thu 01:54:06 PM 33.6667 -84.1833 248° West 236 272 5,000 -950 Descending Atlanta TRACON
Thu 01:55:06 PM 33.6500 -84.2333 270° West 190 219 3,800 -1,053 Descending Atlanta TRACON
Thu 01:56:00 PM 33.6500 -84.2833 270° West 193 222 3,000 -947 Descending Atlanta TRACON
Thu 01:57:00 PM 33.6500 -84.3500 270° West 164 189 2,000 -850 Descending Atlanta TRACON
Thu 01:58:00 PM 33.6500 -84.4000 220° Southwest 130 150 1,300 -700 Descending Atlanta TRACON
Thu 02:05:32 PM 33.6333 -84.4167 290° West  Level FlightAware Approximate
Thu 02:06:32 PM 33.6726 -84.5492 290° West  Level Estimated

Login

Don't have an account? Register now (free) for customized features, flight alerts, and more!